Time;durP1;ratioP1;P1;durP2;ratioP2;P2;SDS_P1;SDS_P2;PMS_P1;PMS_P2;Temp;Humidity;BMP_temperature;BMP_pressure;BME280_temperature;BME280_humidity;BME280_pressure;Samples;Min_cycle;Max_cycle;Signal;HPM_P1;HPM_P2
2024/01/31 05:10:50;;;;;;;;;;;8.40;99.90;;;;;;2612160;54;20995;-72
2024/01/31 05:13:19;;;;;;;;;;;8.40;99.90;;;;;;2616267;54;19938;-72
2024/01/31 05:15:50;;;;;;;;;;;8.40;99.90;;;;;;2613718;54;20453;-73
2024/01/31 05:18:20;;;;;;;;;;;8.40;99.90;;;;;;2614165;54;19942;-72
2024/01/31 05:20:50;;;;;;;;;;;8.40;99.90;;;;;;2615543;54;20469;-71
2024/01/31 05:23:20;;;;;;;;;;;8.30;99.90;;;;;;2618643;39;20429;-70
2024/01/31 05:25:52;;;;;;;;;;;8.40;99.90;;;;;;2617290;54;19960;-71
2024/01/31 05:28:22;;;;;;;;;;;8.40;99.90;;;;;;2619314;54;19947;-70
2024/01/31 05:30:52;;;;;;;;;;;8.40;99.90;;;;;;2616634;54;19953;-70
2024/01/31 05:33:21;;;;;;;;;;;8.40;99.90;;;;;;2618927;54;19953;-70
2024/01/31 05:35:52;;;;;;;;;;;8.40;99.90;;;;;;2617893;54;19954;-71
2024/01/31 05:38:22;;;;;;;;;;;8.40;99.90;;;;;;2617224;54;19947;-71
2024/01/31 05:40:54;;;;;;;;;;;8.40;99.90;;;;;;2617950;54;19945;-71
2024/01/31 05:43:24;;;;;;;;;;;8.40;99.90;;;;;;2619473;54;19962;-71
2024/01/31 05:45:53;;;;;;;;;;;8.40;99.90;;;;;;2619525;54;19953;-71
2024/01/31 05:48:23;;;;;;;;;;;8.40;99.90;;;;;;2616985;47;19946;-71
2024/01/31 05:50:53;;;;;;;;;;;8.40;99.90;;;;;;2619596;54;19947;-71
2024/01/31 05:53:22;;;;;;;;;;;8.40;99.90;;;;;;2615440;54;19950;-71
2024/01/31 05:55:55;;;;;;;;;;;8.50;99.90;;;;;;2598964;54;19951;-72
2024/01/31 05:58:24;;;;;;;;;;;8.40;99.90;;;;;;2595842;47;19955;-72
2024/01/31 06:00:54;;;;;;;;;;;8.40;99.90;;;;;;2597798;54;19957;-71
2024/01/31 06:03:25;;;;;;;;;;;8.40;99.90;;;;;;2598252;54;19954;-72
2024/01/31 06:05:54;;;;;;;;;;;8.40;99.90;;;;;;2601299;39;20638;-72
2024/01/31 06:08:25;;;;;;;;;;;8.40;99.90;;;;;;2598990;39;20382;-72
2024/01/31 06:11:03;;;;;;;;;;;8.40;99.90;;;;;;2601283;54;20038;-71
2024/01/31 06:13:33;;;;;;;;;;;8.40;99.90;;;;;;2598433;47;19950;-71
2024/01/31 06:16:03;;;;;;;;;;;8.40;99.90;;;;;;2598555;54;19970;-71
2024/01/31 06:18:34;;;;;;;;;;;8.40;99.90;;;;;;2599116;54;19954;-72
2024/01/31 06:21:04;;;;;;;;;;;8.40;99.90;;;;;;2599313;54;20002;-72
2024/01/31 06:23:34;;;;;;;;;;;8.40;99.90;;;;;;2607908;39;20378;-71
2024/01/31 06:26:06;;;;;;;;;;;8.30;99.90;;;;;;2618282;54;19998;-71
2024/01/31 06:28:38;;;;;;;;;;;8.30;99.90;;;;;;2619766;54;19953;-71
2024/01/31 06:31:15;;;;;;;;;;;8.30;99.90;;;;;;2618207;54;19947;-71
2024/01/31 06:33:46;;;;;;;;;;;8.20;99.90;;;;;;2620600;54;19957;-72
2024/01/31 06:36:18;;;;;;;;;;;8.10;99.90;;;;;;2616472;47;20002;-72
2024/01/31 06:38:48;;;;;;;;;;;8.00;99.90;;;;;;2616235;54;19947;-72
2024/01/31 06:41:21;;;;;;;;;;;8.00;99.90;;;;;;2615478;54;19948;-72
2024/01/31 06:43:50;;;;;;;;;;;8.00;99.90;;;;;;2615522;54;19951;-70
2024/01/31 06:46:20;;;;;;;;;;;8.00;99.90;;;;;;2615204;54;19946;-72
2024/01/31 06:48:50;;;;;;;;;;;7.90;99.90;;;;;;2615344;47;19954;-71
2024/01/31 06:51:20;;;;;;;;;;;7.90;99.90;;;;;;2615806;54;20450;-70
2024/01/31 06:53:50;;;;;;;;;;;7.80;99.90;;;;;;2614007;54;19945;-72
2024/01/31 06:56:22;;;;;;;;;;;7.80;99.90;;;;;;2613629;54;19958;-71
2024/01/31 06:58:52;;;;;;;;;;;7.80;99.90;;;;;;2615082;54;19943;-71
2024/01/31 07:01:22;;;;;;;;;;;7.80;99.90;;;;;;2615113;54;20509;-71
2024/01/31 07:03:52;;;;;;;;;;;7.80;99.90;;;;;;2613869;47;19947;-71
2024/01/31 07:06:22;;;;;;;;;;;7.80;99.90;;;;;;2614222;54;19947;-71
2024/01/31 07:08:51;;;;;;;;;;;7.80;99.90;;;;;;2616649;54;19973;-73
2024/01/31 07:11:24;;;;;;;;;;;7.80;99.90;;;;;;2621440;47;19959;-70
2024/01/31 07:13:53;;;;;;;;;;;7.90;99.90;;;;;;2618153;54;19953;-71
2024/01/31 07:16:23;;;;;;;;;;;7.90;99.90;;;;;;2616488;54;19939;-71
2024/01/31 07:18:54;;;;;;;;;;;8.00;99.90;;;;;;2617975;47;19946;-72
2024/01/31 07:21:28;;;;;;;;;;;8.00;99.90;;;;;;2618380;54;19951;-70
2024/01/31 07:23:58;;;;;;;;;;;8.00;99.90;;;;;;2614402;47;19942;-73
2024/01/31 07:26:42;;;;;;;;;;;8.00;99.90;;;;;;2619346;54;19967;-74
2024/01/31 07:29:15;;;;;;;;;;;8.10;99.90;;;;;;2620788;54;19946;-71
2024/01/31 07:31:45;;;;;;;;;;;8.10;99.90;;;;;;2619877;54;19946;-72
2024/01/31 07:34:14;;;;;;;;;;;8.20;99.90;;;;;;2617886;54;19945;-70
2024/01/31 07:36:44;;;;;;;;;;;8.20;99.90;;;;;;2615725;47;20389;-73
2024/01/31 07:39:14;;;;;;;;;;;8.30;99.90;;;;;;2614664;54;19946;-73
2024/01/31 07:41:48;;;;;;;;;;;8.30;99.90;;;;;;2617689;54;20032;-72
2024/01/31 07:44:18;;;;;;;;;;;8.40;99.90;;;;;;2616564;54;19946;-72
2024/01/31 07:46:47;;;;;;;;;;;8.40;99.90;;;;;;2614442;47;19945;-71
2024/01/31 07:49:17;;;;;;;;;;;8.40;99.90;;;;;;2615324;54;19939;-71
2024/01/31 07:51:47;;;;;;;;;;;8.40;99.90;;;;;;2616177;47;19950;-70
2024/01/31 07:54:18;;;;;;;;;;;8.40;99.90;;;;;;2614047;49;19954;-72
2024/01/31 07:56:50;;;;;;;;;;;8.40;99.90;;;;;;2615979;47;19946;-71
2024/01/31 07:59:20;;;;;;;;;;;8.40;99.90;;;;;;2616068;54;19946;-71
2024/01/31 08:01:49;;;;;;;;;;;8.40;99.90;;;;;;2615803;47;19961;-71
2024/01/31 08:04:19;;;;;;;;;;;8.40;99.90;;;;;;2612782;47;20053;-70
2024/01/31 08:06:49;;;;;;;;;;;8.40;99.90;;;;;;2615210;54;20045;-70
2024/01/31 08:09:19;;;;;;;;;;;8.40;99.90;;;;;;2614830;54;19939;-71
2024/01/31 08:11:54;;;;;;;;;;;8.50;99.90;;;;;;2615929;54;19939;-71
2024/01/31 08:14:23;;;;;;;;;;;8.50;99.90;;;;;;2617583;54;20526;-72
2024/01/31 08:16:53;;;;;;;;;;;8.50;99.90;;;;;;2617617;54;20068;-72
2024/01/31 08:19:23;;;;;;;;;;;8.50;99.90;;;;;;2616392;54;20435;-72
2024/01/31 08:21:53;;;;;;;;;;;8.50;99.90;;;;;;2616507;54;19946;-72
2024/01/31 08:24:23;;;;;;;;;;;8.50;99.90;;;;;;2616520;47;20018;-72
2024/01/31 08:26:56;;;;;;;;;;;8.50;99.90;;;;;;2615261;54;19943;-72
2024/01/31 08:29:26;;;;;;;;;;;8.50;99.90;;;;;;2616967;50;21811;-73
2024/01/31 08:31:56;;;;;;;;;;;8.70;99.90;;;;;;2617071;47;19942;-73
2024/01/31 08:34:26;;;;;;;;;;;8.50;99.90;;;;;;2616345;54;19957;-72
2024/01/31 08:37:00;;;;;;;;;;;8.40;99.90;;;;;;2616931;47;19938;-73
2024/01/31 08:39:32;;;;;;;;;;;8.40;99.90;;;;;;2615303;39;20129;-73
2024/01/31 08:42:05;;;;;;;;;;;8.50;99.90;;;;;;2615087;54;19939;-73
2024/01/31 08:44:35;;;;;;;;;;;8.50;99.90;;;;;;2615941;54;20021;-73
2024/01/31 08:47:05;;;;;;;;;;;8.50;99.90;;;;;;2617087;47;19938;-72
2024/01/31 08:49:48;;;;;;;;;;;8.50;99.90;;;;;;2618806;39;20373;-73
2024/01/31 08:52:18;;;;;;;;;;;8.50;99.90;;;;;;2618068;54;20455;-74
2024/01/31 08:54:47;;;;;;;;;;;8.50;99.90;;;;;;2617741;54;20468;-73
2024/01/31 08:57:20;;;;;;;;;;;8.60;99.90;;;;;;2619374;54;19946;-73
2024/01/31 08:59:50;;;;;;;;;;;8.60;99.90;;;;;;2618776;54;19946;-73
2024/01/31 09:02:19;;;;;;;;;;;8.60;99.90;;;;;;2616871;54;19954;-73
2024/01/31 09:04:49;;;;;;;;;;;8.70;99.90;;;;;;2616566;49;19981;-73
2024/01/31 09:07:19;;;;;;;;;;;8.70;99.90;;;;;;2617679;47;19939;-74
2024/01/31 09:09:49;;;;;;;;;;;8.70;99.90;;;;;;2615295;39;20399;-73
2024/01/31 09:12:22;;;;;;;;;;;8.70;99.90;;;;;;2615962;47;19987;-74
2024/01/31 09:14:51;;;;;;;;;;;8.80;99.90;;;;;;2615531;54;20415;-74
2024/01/31 09:17:21;;;;;;;;;;;8.80;99.90;;;;;;2614324;39;20597;-74
2024/01/31 09:19:51;;;;;;;;;;;8.80;99.90;;;;;;2618473;47;19946;-73
2024/01/31 09:22:20;;;;;;;;;;;8.90;99.90;;;;;;2618113;54;19958;-74
2024/01/31 09:24:50;;;;;;;;;;;8.90;99.90;;;;;;2614160;54;20037;-74
2024/01/31 09:27:22;;;;;;;;;;;8.90;99.90;;;;;;2616016;54;19938;-73
2024/01/31 09:29:52;;;;;;;;;;;8.90;99.90;;;;;;2615440;54;19939;-74
2024/01/31 09:32:22;;;;;;;;;;;9.00;99.90;;;;;;2615746;47;19951;-73
2024/01/31 09:34:51;;;;;;;;;;;9.00;99.90;;;;;;2616606;53;19946;-73
2024/01/31 09:37:25;;;;;;;;;;;8.90;99.90;;;;;;2616710;39;20394;-73
2024/01/31 09:39:56;;;;;;;;;;;9.00;99.90;;;;;;2616454;47;19954;-73
2024/01/31 09:42:28;;;;;;;;;;;9.00;99.90;;;;;;2617260;54;19973;-74
2024/01/31 09:44:58;;;;;;;;;;;9.00;99.90;;;;;;2618913;46;19960;-75
2024/01/31 09:47:29;;;;;;;;;;;9.00;99.90;;;;;;2619372;54;19938;-74
2024/01/31 09:49:58;;;;;;;;;;;9.00;99.90;;;;;;2619354;54;19953;-74
2024/01/31 09:52:29;;;;;;;;;;;9.10;99.90;;;;;;2619336;46;19947;-73
2024/01/31 09:55:00;;;;;;;;;;;9.00;99.90;;;;;;2615423;54;19953;-73
2024/01/31 09:57:32;;;;;;;;;;;9.00;99.90;;;;;;2618156;54;20075;-73
2024/01/31 10:00:03;;;;;;;;;;;9.00;99.90;;;;;;2618675;54;19945;-74
2024/01/31 10:02:33;;;;;;;;;;;9.00;99.90;;;;;;2617461;54;20080;-74
2024/01/31 10:05:03;;;;;;;;;;;9.00;99.90;;;;;;2616019;54;20041;-73
2024/01/31 10:07:39;;;;;;;;;;;9.00;99.90;;;;;;2619456;39;20370;-73
2024/01/31 10:10:10;;;;;;;;;;;9.00;99.90;;;;;;2618626;54;19938;-74
2024/01/31 10:12:43;;;;;;;;;;;9.10;99.90;;;;;;2618144;54;19943;-72
2024/01/31 10:15:13;;;;;;;;;;;9.10;99.90;;;;;;2617076;54;20327;-73
2024/01/31 10:17:42;;;;;;;;;;;9.10;99.90;;;;;;2618827;47;19942;-73
2024/01/31 10:20:13;;;;;;;;;;;9.10;99.90;;;;;;2617375;54;19990;-73
2024/01/31 10:22:43;;;;;;;;;;;9.10;99.90;;;;;;2618947;54;20526;-74
2024/01/31 10:25:16;;;;;;;;;;;9.10;99.90;;;;;;2617094;54;19958;-71
2024/01/31 10:27:51;;;;;;;;;;;9.10;99.90;;;;;;2618018;54;19955;-73
2024/01/31 10:30:21;;;;;;;;;;;9.10;99.90;;;;;;2617048;54;19950;-73
2024/01/31 10:32:51;;;;;;;;;;;9.10;99.90;;;;;;2618851;54;19946;-73
2024/01/31 10:35:21;;;;;;;;;;;9.10;99.90;;;;;;2623551;54;20010;-74
2024/01/31 10:38:11;;;;;;;;;;;9.10;99.90;;;;;;2624765;54;19942;-73
2024/01/31 10:40:42;;;;;;;;;;;9.10;99.90;;;;;;2622455;47;20649;-73
2024/01/31 10:43:16;;;;;;;;;;;9.10;99.90;;;;;;2619184;54;19961;-74
2024/01/31 10:45:47;;;;;;;;;;;9.20;99.90;;;;;;2617301;54;19955;-72
2024/01/31 10:48:17;;;;;;;;;;;9.50;99.90;;;;;;2617808;54;19995;-72
2024/01/31 10:50:47;;;;;;;;;;;9.60;99.90;;;;;;2618513;54;19946;-74
2024/01/31 10:53:17;;;;;;;;;;;9.60;99.90;;;;;;2618044;54;20159;-73
2024/01/31 10:55:48;;;;;;;;;;;9.80;99.90;;;;;;2620615;47;19946;-73
2024/01/31 10:58:21;;;;;;;;;;;10.00;99.90;;;;;;2619312;47;19934;-72
2024/01/31 11:00:51;;;;;;;;;;;10.10;99.90;;;;;;2618969;54;19952;-73
2024/01/31 11:03:21;;;;;;;;;;;10.30;99.90;;;;;;2616120;47;20064;-74
2024/01/31 11:05:51;;;;;;;;;;;10.40;99.90;;;;;;2619128;54;20060;-74
2024/01/31 11:08:22;;;;;;;;;;;10.40;99.90;;;;;;2618221;54;19963;-75
2024/01/31 11:10:52;;;;;;;;;;;10.40;99.90;;;;;;2616473;54;20003;-76
2024/01/31 11:13:24;;;;;;;;;;;10.50;99.90;;;;;;2620017;39;20358;-76
2024/01/31 11:15:54;;;;;;;;;;;10.60;99.90;;;;;;2617621;39;20573;-75
2024/01/31 11:18:27;;;;;;;;;;;10.60;99.90;;;;;;2618501;54;19945;-76
2024/01/31 11:20:58;;;;;;;;;;;10.60;99.90;;;;;;2618911;54;19951;-76
2024/01/31 11:23:28;;;;;;;;;;;10.60;99.90;;;;;;2619932;47;19934;-74
2024/01/31 11:25:58;;;;;;;;;;;10.40;99.90;;;;;;2618457;54;19958;-73
2024/01/31 11:28:31;;;;;;;;;;;10.30;99.90;;;;;;2620152;54;20008;-75
2024/01/31 11:31:01;;;;;;;;;;;10.30;99.90;;;;;;2618651;47;19943;-71
2024/01/31 11:33:31;;;;;;;;;;;10.20;99.90;;;;;;2616366;47;20439;-73
2024/01/31 11:36:01;;;;;;;;;;;10.20;99.90;;;;;;2616150;47;19965;-73
2024/01/31 11:38:31;;;;;;;;;;;10.20;99.90;;;;;;2616657;54;19935;-71
2024/01/31 11:41:01;;;;;;;;;;;10.10;99.90;;;;;;2617783;47;19951;-72
2024/01/31 11:43:33;;;;;;;;;;;10.10;99.90;;;;;;2618161;47;19958;-71
2024/01/31 11:46:03;;;;;;;;;;;10.00;99.90;;;;;;2619452;47;20077;-72
2024/01/31 11:48:35;;;;;;;;;;;10.00;99.90;;;;;;2619215;47;19999;-71
2024/01/31 11:51:07;;;;;;;;;;;10.00;99.90;;;;;;2618942;54;19954;-71
2024/01/31 11:53:37;;;;;;;;;;;10.00;99.90;;;;;;2619638;54;20442;-72
2024/01/31 11:56:07;;;;;;;;;;;10.00;99.90;;;;;;2616573;54;20061;-75
2024/01/31 11:58:39;;;;;;;;;;;9.90;99.90;;;;;;2617769;54;19957;-72
2024/01/31 12:01:09;;;;;;;;;;;9.90;99.90;;;;;;2618293;54;19946;-72
2024/01/31 12:03:39;;;;;;;;;;;9.90;99.90;;;;;;2616699;47;19953;-73
2024/01/31 12:06:08;;;;;;;;;;;9.80;99.90;;;;;;2616011;39;20032;-72
2024/01/31 12:08:45;;;;;;;;;;;9.80;99.90;;;;;;2616506;54;19953;-75
2024/01/31 12:11:15;;;;;;;;;;;9.70;99.90;;;;;;2615674;54;20026;-74
2024/01/31 12:13:49;;;;;;;;;;;9.70;99.90;;;;;;2614955;46;20006;-73
2024/01/31 12:16:18;;;;;;;;;;;9.70;99.90;;;;;;2619037;54;19951;-72
2024/01/31 12:19:15;;;;;;;;;;;9.70;99.90;;;;;;2600637;54;19942;-71
2024/01/31 12:21:45;;;;;;;;;;;9.80;99.90;;;;;;2598298;47;19946;-71
2024/01/31 12:24:15;;;;;;;;;;;9.80;99.90;;;;;;2594922;39;20422;-72
2024/01/31 12:26:45;;;;;;;;;;;9.70;99.90;;;;;;2602905;47;19953;-73
2024/01/31 12:29:18;;;;;;;;;;;9.70;99.90;;;;;;2602007;47;19946;-74
2024/01/31 12:31:48;;;;;;;;;;;9.70;99.90;;;;;;2604936;47;19981;-73
2024/01/31 12:34:18;;;;;;;;;;;9.80;99.90;;;;;;2603283;47;19957;-70
2024/01/31 12:36:48;;;;;;;;;;;9.50;99.90;;;;;;2604631;47;19946;-70
2024/01/31 12:39:20;;;;;;;;;;;9.60;99.90;;;;;;2599721;54;19950;-69
2024/01/31 12:41:52;;;;;;;;;;;9.60;99.90;;;;;;2600312;54;20129;-71
2024/01/31 12:44:26;;;;;;;;;;;9.50;99.90;;;;;;2600870;47;19954;-71
2024/01/31 12:46:56;;;;;;;;;;;9.40;99.90;;;;;;2601263;54;20487;-70
2024/01/31 12:49:28;;;;;;;;;;;9.50;99.90;;;;;;2598993;47;19950;-71
2024/01/31 12:51:57;;;;;;;;;;;9.60;99.90;;;;;;2600726;54;19946;-70
2024/01/31 12:54:27;;;;;;;;;;;9.60;99.90;;;;;;2599570;54;19955;-70
2024/01/31 12:56:57;;;;;;;;;;;9.70;99.90;;;;;;2601508;54;19991;-71
2024/01/31 12:59:29;;;;;;;;;;;9.80;99.90;;;;;;2601865;46;19973;-70
2024/01/31 13:01:59;;;;;;;;;;;9.90;99.90;;;;;;2607572;54;19953;-71
2024/01/31 13:04:29;;;;;;;;;;;9.90;99.90;;;;;;2603678;54;19947;-70
2024/01/31 13:06:59;;;;;;;;;;;10.00;99.90;;;;;;2603994;54;19942;-71
2024/01/31 13:09:29;;;;;;;;;;;10.00;99.90;;;;;;2599862;54;19958;-71
2024/01/31 13:12:00;;;;;;;;;;;10.00;99.90;;;;;;2602173;54;20064;-70
2024/01/31 13:14:32;;;;;;;;;;;10.00;99.90;;;;;;2610724;47;19947;-74
2024/01/31 13:17:02;;;;;;;;;;;10.00;99.90;;;;;;2616592;54;19975;-72
2024/01/31 13:19:32;;;;;;;;;;;10.00;99.90;;;;;;2616974;54;19942;-71
2024/01/31 13:22:02;;;;;;;;;;;10.20;99.90;;;;;;2617958;54;19935;-70
2024/01/31 13:24:35;;;;;;;;;;;10.00;99.90;;;;;;2615197;54;20538;-71
2024/01/31 13:27:05;;;;;;;;;;;9.90;99.90;;;;;;2615795;54;19968;-72
2024/01/31 13:29:38;;;;;;;;;;;9.90;99.90;;;;;;2612626;54;20037;-72
2024/01/31 13:32:08;;;;;;;;;;;9.90;99.90;;;;;;2615672;54;19953;-72
2024/01/31 13:34:38;;;;;;;;;;;9.80;99.90;;;;;;2617145;54;19950;-72
2024/01/31 13:37:08;;;;;;;;;;;9.80;99.90;;;;;;2618482;47;19955;-72
2024/01/31 13:39:38;;;;;;;;;;;9.80;99.90;;;;;;2614212;47;19946;-72
2024/01/31 13:42:08;;;;;;;;;;;9.80;99.90;;;;;;2617500;54;19953;-72
2024/01/31 13:44:44;;;;;;;;;;;9.80;99.90;;;;;;2616499;53;19941;-72
2024/01/31 13:47:14;;;;;;;;;;;9.80;99.90;;;;;;2615305;47;20002;-72
2024/01/31 13:49:44;;;;;;;;;;;9.90;99.90;;;;;;2617748;46;20025;-72
2024/01/31 13:52:13;;;;;;;;;;;9.90;99.90;;;;;;2616059;54;19969;-71
2024/01/31 13:54:43;;;;;;;;;;;9.90;99.90;;;;;;2615708;54;20017;-72
2024/01/31 13:57:13;;;;;;;;;;;9.90;99.90;;;;;;2619102;47;19954;-73
2024/01/31 13:59:45;;;;;;;;;;;9.80;99.90;;;;;;2618309;54;19962;-71
2024/01/31 14:02:15;;;;;;;;;;;9.80;99.90;;;;;;2615405;54;19991;-71
2024/01/31 14:04:45;;;;;;;;;;;9.70;99.90;;;;;;2616610;54;19946;-71
2024/01/31 14:07:15;;;;;;;;;;;9.70;99.90;;;;;;2619265;54;19938;-72
2024/01/31 14:09:45;;;;;;;;;;;9.80;99.90;;;;;;2615117;54;21128;-71
2024/01/31 14:12:14;;;;;;;;;;;9.70;99.90;;;;;;2618323;39;20379;-70
2024/01/31 14:14:47;;;;;;;;;;;9.70;99.90;;;;;;2618465;47;19946;-71
2024/01/31 14:17:17;;;;;;;;;;;9.70;99.90;;;;;;2615587;46;19956;-72
2024/01/31 14:19:47;;;;;;;;;;;9.70;99.90;;;;;;2617114;39;20437;-71
2024/01/31 14:22:16;;;;;;;;;;;9.70;99.90;;;;;;2616964;54;19946;-73
2024/01/31 14:24:56;;;;;;;;;;;9.70;99.90;;;;;;2616059;54;19957;-72
2024/01/31 14:27:26;;;;;;;;;;;9.80;99.90;;;;;;2616406;54;20045;-72
2024/01/31 14:29:58;;;;;;;;;;;9.70;99.90;;;;;;2615780;39;20357;-71
2024/01/31 14:32:28;;;;;;;;;;;9.70;99.90;;;;;;2615570;46;19958;-71
2024/01/31 14:34:58;;;;;;;;;;;9.70;99.90;;;;;;2616724;47;19954;-72
2024/01/31 14:37:27;;;;;;;;;;;9.70;99.90;;;;;;2616476;54;19946;-72
2024/01/31 14:39:57;;;;;;;;;;;9.70;99.90;;;;;;2621066;54;19938;-73
2024/01/31 14:42:26;;;;;;;;;;;9.70;99.90;;;;;;2618849;54;20525;-72
2024/01/31 14:44:59;;;;;;;;;;;9.70;99.90;;;;;;2619563;47;19954;-72
2024/01/31 14:47:29;;;;;;;;;;;9.70;99.90;;;;;;2618355;54;20497;-74
2024/01/31 14:49:59;;;;;;;;;;;9.60;99.90;;;;;;2616822;54;19947;-76
2024/01/31 14:52:29;;;;;;;;;;;9.60;99.90;;;;;;2616092;47;19957;-74
2024/01/31 14:54:59;;;;;;;;;;;9.40;99.90;;;;;;2618171;54;19950;-72
2024/01/31 14:57:29;;;;;;;;;;;9.40;99.90;;;;;;2618146;54;19946;-72
2024/01/31 15:00:02;;;;;;;;;;;9.40;99.90;;;;;;2617013;54;19938;-74
2024/01/31 15:02:32;;;;;;;;;;;9.50;99.90;;;;;;2615625;54;19947;-73
2024/01/31 15:05:02;;;;;;;;;;;9.50;99.90;;;;;;2618114;39;20388;-73
2024/01/31 15:07:32;;;;;;;;;;;9.50;99.90;;;;;;2619043;39;20354;-74
2024/01/31 15:10:01;;;;;;;;;;;9.60;99.90;;;;;;2617702;47;19958;-73
2024/01/31 15:12:31;;;;;;;;;;;9.60;99.90;;;;;;2618326;54;19935;-74
2024/01/31 15:15:04;;;;;;;;;;;9.70;99.90;;;;;;2620647;54;20022;-75
2024/01/31 15:17:34;;;;;;;;;;;9.60;99.90;;;;;;2621264;46;19951;-70
2024/01/31 15:20:03;;;;;;;;;;;9.60;99.90;;;;;;2621838;54;19946;-73
2024/01/31 15:22:33;;;;;;;;;;;9.70;99.90;;;;;;2616702;39;20376;-74
2024/01/31 15:25:03;;;;;;;;;;;9.60;99.90;;;;;;2615859;54;20099;-73
2024/01/31 15:27:33;;;;;;;;;;;9.60;99.90;;;;;;2616715;54;19950;-73
2024/01/31 15:30:06;;;;;;;;;;;9.70;99.90;;;;;;2620565;47;19953;-75
2024/01/31 15:32:36;;;;;;;;;;;9.70;99.90;;;;;;2618722;54;19935;-77
2024/01/31 15:35:07;;;;;;;;;;;9.70;99.90;;;;;;2619577;54;19954;-76
2024/01/31 15:37:36;;;;;;;;;;;9.70;99.90;;;;;;2618421;47;19946;-74
2024/01/31 15:40:06;;;;;;;;;;;9.70;99.90;;;;;;2616362;47;19950;-73
2024/01/31 15:42:36;;;;;;;;;;;9.70;99.90;;;;;;2619932;54;19943;-69
2024/01/31 15:45:09;;;;;;;;;;;9.70;99.90;;;;;;2615116;54;19945;-74
2024/01/31 15:47:39;;;;;;;;;;;9.80;99.90;;;;;;2617698;39;20365;-72
2024/01/31 15:50:09;;;;;;;;;;;9.70;99.90;;;;;;2611643;54;19961;-73
2024/01/31 15:52:39;;;;;;;;;;;9.80;99.90;;;;;;2597869;47;19954;-75
2024/01/31 15:55:10;;;;;;;;;;;9.80;99.90;;;;;;2601112;39;20188;-70
2024/01/31 15:57:39;;;;;;;;;;;9.80;99.90;;;;;;2601409;54;19951;-72
2024/01/31 16:00:12;;;;;;;;;;;9.70;99.90;;;;;;2609745;54;19943;-72
2024/01/31 16:02:42;;;;;;;;;;;9.70;99.90;;;;;;2601923;54;19958;-71
2024/01/31 16:05:12;;;;;;;;;;;9.70;99.90;;;;;;2601232;47;19954;-72
2024/01/31 16:07:42;;;;;;;;;;;9.60;99.90;;;;;;2599214;51;19955;-73
2024/01/31 16:10:12;;;;;;;;;;;9.60;99.90;;;;;;2597479;47;19962;-73
2024/01/31 16:12:41;;;;;;;;;;;9.50;99.90;;;;;;2599092;47;20000;-74
2024/01/31 16:15:14;;;;;;;;;;;9.50;99.90;;;;;;2599596;54;20951;-74
2024/01/31 16:17:45;;;;;;;;;;;9.40;99.90;;;;;;2600191;54;20042;-70
2024/01/31 16:20:16;;;;;;;;;;;9.40;99.90;;;;;;2600199;47;19947;-72
2024/01/31 16:22:45;;;;;;;;;;;9.30;99.90;;;;;;2601117;39;20190;-72
2024/01/31 16:25:16;;;;;;;;;;;9.20;99.90;;;;;;2603356;54;19951;-72
2024/01/31 16:27:45;;;;;;;;;;;9.20;99.90;;;;;;2596881;47;19962;-72
2024/01/31 16:30:18;;;;;;;;;;;9.10;99.90;;;;;;2598691;54;19950;-72
2024/01/31 16:32:47;;;;;;;;;;;9.10;99.90;;;;;;2598626;54;21351;-71
2024/01/31 16:35:18;;;;;;;;;;;9.10;99.90;;;;;;2600585;54;19947;-70
2024/01/31 16:37:48;;;;;;;;;;;9.00;99.90;;;;;;2601140;47;19950;-71
2024/01/31 16:40:18;;;;;;;;;;;9.20;99.90;;;;;;2599789;54;19950;-70
2024/01/31 16:42:47;;;;;;;;;;;9.00;99.90;;;;;;2600346;54;19958;-71
2024/01/31 16:45:20;;;;;;;;;;;8.90;99.90;;;;;;2598805;54;19934;-71
2024/01/31 16:47:50;;;;;;;;;;;8.90;99.90;;;;;;2599067;54;19981;-71
2024/01/31 16:50:20;;;;;;;;;;;8.80;99.90;;;;;;2603782;39;20586;-72
2024/01/31 16:52:49;;;;;;;;;;;8.80;99.90;;;;;;2601591;54;19961;-70
2024/01/31 16:55:19;;;;;;;;;;;8.70;99.90;;;;;;2598945;54;19950;-70
2024/01/31 16:57:49;;;;;;;;;;;8.70;99.90;;;;;;2600552;54;19950;-69
2024/01/31 17:00:21;;;;;;;;;;;8.70;99.90;;;;;;2597829;54;19950;-70
2024/01/31 17:02:51;;;;;;;;;;;8.60;99.90;;;;;;2598486;47;20058;-72
2024/01/31 17:05:21;;;;;;;;;;;8.60;99.90;;;;;;2599149;54;19946;-72
2024/01/31 17:07:51;;;;;;;;;;;8.50;99.90;;;;;;2600287;47;20038;-71
2024/01/31 17:31:14;;;;;;;;;;;8.10;99.90;;;;;;2632714;54;19949;-88
2024/01/31 17:33:47;;;;;;;;;;;8.10;99.90;;;;;;2632453;47;19950;-90
2024/01/31 17:36:21;;;;;;;;;;;9.00;99.90;;;;;;2602807;47;19946;-71
2024/01/31 17:38:51;;;;;;;;;;;7.90;99.90;;;;;;2602185;46;19981;-71
2024/01/31 17:41:21;;;;;;;;;;;7.80;99.90;;;;;;2600874;47;19953;-73
2024/01/31 17:43:51;;;;;;;;;;;7.70;99.90;;;;;;2601862;54;20635;-72
2024/01/31 17:46:24;;;;;;;;;;;7.60;99.90;;;;;;2598619;54;19946;-72
2024/01/31 17:48:53;;;;;;;;;;;7.50;99.90;;;;;;2599736;54;19965;-72
2024/01/31 17:51:23;;;;;;;;;;;7.50;99.90;;;;;;2602461;39;20354;-76
2024/01/31 17:53:53;;;;;;;;;;;7.50;99.90;;;;;;2600514;47;19953;-73
2024/01/31 17:56:24;;;;;;;;;;;7.40;99.90;;;;;;2600691;54;19951;-74
2024/01/31 17:58:54;;;;;;;;;;;7.30;99.90;;;;;;2604320;54;19951;-72
2024/01/31 18:01:26;;;;;;;;;;;7.30;99.90;;;;;;2601830;54;19950;-72
2024/01/31 18:03:56;;;;;;;;;;;7.20;99.90;;;;;;2601094;54;19975;-73
2024/01/31 18:06:26;;;;;;;;;;;7.20;99.90;;;;;;2598804;54;22481;-71
2024/01/31 18:08:56;;;;;;;;;;;7.10;99.90;;;;;;2598176;54;20068;-72
2024/01/31 18:11:25;;;;;;;;;;;7.10;99.90;;;;;;2596189;54;19947;-73
2024/01/31 18:13:55;;;;;;;;;;;7.00;99.90;;;;;;2598586;54;20079;-73
2024/01/31 18:16:27;;;;;;;;;;;6.90;99.90;;;;;;2598871;39;20326;-73
2024/01/31 18:19:01;;;;;;;;;;;6.80;99.90;;;;;;2599824;54;20025;-72
2024/01/31 18:21:35;;;;;;;;;;;6.80;99.90;;;;;;2597918;51;21423;-73
2024/01/31 18:24:05;;;;;;;;;;;6.70;99.90;;;;;;2596600;54;19947;-72
2024/01/31 18:26:36;;;;;;;;;;;6.70;99.90;;;;;;2600076;54;19957;-71
2024/01/31 18:29:06;;;;;;;;;;;6.70;99.90;;;;;;2601383;54;19953;-72
2024/01/31 18:31:43;;;;;;;;;;;6.70;99.90;;;;;;2601934;47;19951;-72
2024/01/31 18:34:12;;;;;;;;;;;6.60;99.90;;;;;;2596827;54;19946;-73
2024/01/31 18:36:42;;;;;;;;;;;6.60;99.90;;;;;;2597801;54;19955;-73
2024/01/31 18:39:12;;;;;;;;;;;6.60;99.90;;;;;;2596995;54;19950;-72
2024/01/31 18:41:42;;;;;;;;;;;6.60;99.90;;;;;;2598472;46;19950;-72
2024/01/31 18:44:12;;;;;;;;;;;6.50;99.90;;;;;;2602444;54;22324;-73
2024/01/31 18:46:44;;;;;;;;;;;6.50;99.90;;;;;;2596935;54;19942;-71
2024/01/31 18:49:16;;;;;;;;;;;6.40;99.90;;;;;;2597611;54;19950;-73
2024/01/31 18:51:47;;;;;;;;;;;6.40;99.90;;;;;;2597434;47;19957;-72
2024/01/31 18:54:21;;;;;;;;;;;6.30;99.90;;;;;;2596723;39;20370;-74
2024/01/31 18:56:51;;;;;;;;;;;6.20;99.90;;;;;;2596992;54;19954;-73
2024/01/31 18:59:22;;;;;;;;;;;6.10;99.90;;;;;;2596930;54;19942;-72
2024/01/31 19:01:55;;;;;;;;;;;6.10;99.90;;;;;;2595470;54;19946;-73
2024/01/31 19:04:25;;;;;;;;;;;6.10;99.90;;;;;;2601402;54;19958;-71
2024/01/31 19:06:55;;;;;;;;;;;6.00;99.90;;;;;;2598135;54;19951;-70
2024/01/31 19:09:25;;;;;;;;;;;6.00;99.90;;;;;;2596099;54;19973;-71
2024/01/31 19:11:55;;;;;;;;;;;6.00;99.90;;;;;;2598074;54;20006;-71
2024/01/31 19:14:26;;;;;;;;;;;6.20;99.90;;;;;;2598675;54;19954;-71
2024/01/31 19:16:58;;;;;;;;;;;6.00;99.90;;;;;;2597182;47;19950;-69
2024/01/31 19:19:43;;;;;;;;;;;6.00;99.90;;;;;;2598874;54;19951;-73
2024/01/31 19:22:13;;;;;;;;;;;6.00;99.90;;;;;;2597554;47;19950;-74
2024/01/31 19:24:43;;;;;;;;;;;6.00;99.90;;;;;;2595793;54;19981;-75
2024/01/31 19:27:13;;;;;;;;;;;5.70;99.90;;;;;;2598734;54;20636;-72
2024/01/31 19:29:43;;;;;;;;;;;6.00;99.90;;;;;;2596283;52;19951;-72
2024/01/31 19:32:15;;;;;;;;;;;6.00;99.90;;;;;;2598352;54;20073;-71
2024/01/31 19:34:45;;;;;;;;;;;6.00;99.90;;;;;;2597987;54;19979;-71
2024/01/31 19:37:16;;;;;;;;;;;6.00;99.90;;;;;;2599233;46;19950;-73
2024/01/31 19:39:45;;;;;;;;;;;6.00;99.90;;;;;;2595005;47;19954;-72
2024/01/31 19:42:16;;;;;;;;;;;5.90;99.90;;;;;;2596687;39;20334;-71
2024/01/31 19:44:45;;;;;;;;;;;5.90;99.90;;;;;;2596314;54;19954;-72
2024/01/31 19:47:18;;;;;;;;;;;5.90;99.90;;;;;;2597247;54;19947;-72
2024/01/31 19:49:49;;;;;;;;;;;5.90;99.90;;;;;;2598483;39;20457;-74
2024/01/31 19:52:19;;;;;;;;;;;5.90;99.90;;;;;;2596400;47;19971;-70
2024/01/31 19:54:48;;;;;;;;;;;5.90;99.90;;;;;;2604505;47;19947;-70
2024/01/31 19:57:18;;;;;;;;;;;5.90;99.90;;;;;;2598592;54;19955;-70
2024/01/31 19:59:48;;;;;;;;;;;5.90;99.90;;;;;;2597736;47;19957;-70
2024/01/31 20:02:21;;;;;;;;;;;5.90;99.90;;;;;;2601903;47;19961;-70
2024/01/31 20:04:51;;;;;;;;;;;5.80;99.90;;;;;;2598890;54;20353;-71
2024/01/31 20:07:21;;;;;;;;;;;6.00;99.90;;;;;;2600776;54;19954;-71
2024/01/31 20:09:51;;;;;;;;;;;5.90;99.90;;;;;;2602249;54;20038;-70
2024/01/31 20:12:21;;;;;;;;;;;5.90;99.90;;;;;;2600779;54;21330;-73
2024/01/31 20:14:50;;;;;;;;;;;5.90;99.90;;;;;;2612900;47;19939;-72
2024/01/31 20:17:23;;;;;;;;;;;5.90;99.90;;;;;;2615620;54;20029;-73
2024/01/31 20:19:53;;;;;;;;;;;5.80;99.90;;;;;;2616380;54;19979;-75